FABH weather

Public forecast

Using degrees Celsius for public forecast. Weather courtesy of forecast.io.

Closest aviation weather report (METAR) to Belfast Aerodrome

Report is more than 6 hours old.

Closest report is Ermelo Airport, 50.4 nm (93.3 km) S. Retrieved 2020/08/11 07:24 UTC (18 hours ago):

FAEO 110724Z 33014KT CAVOK 16/M00 Q1027

Closest aviation forecast (TAF) to Belfast Aerodrome

Forecast is more than 12 hours old.

Closest forecast is Ermelo Airport, 50.4 nm (93.3 km) S. Retrieved 2017/06/05 04:55 UTC (3 years ago):

TAF FAEO 050300Z 0504/0515 09006KT CAVOK TX18/0513ZTN05/0504Z